Time;durP1;ratioP1;P1;durP2;ratioP2;P2;SDS_P1;SDS_P2;PMS_P1;PMS_P2;Temp;Humidity;BMP_temperature;BMP_pressure;BME280_temperature;BME280_humidity;BME280_pressure;Samples;Min_cycle;Max_cycle;Signal;HPM_P1;HPM_P2
2020/12/27 00:02:16;;;;;;;62.30;9.73;;;;;;;11.18;100.00;99714.31;5091966;28;20058;-64
2020/12/27 00:04:42;;;;;;;55.65;10.43;;;;;;;11.17;100.00;99668.13;5091797;28;20032;-64
2020/12/27 00:07:13;;;;;;;51.38;9.55;;;;;;;11.17;100.00;99668.13;5091686;28;20046;-65
2020/12/27 00:09:42;;;;;;;59.28;10.43;;;;;;;11.18;100.00;99692.44;5091697;28;20048;-65
2020/12/27 00:12:08;;;;;;;61.90;9.63;;;;;;;11.18;100.00;99620.56;5091216;28;20036;-65
2020/12/27 00:14:34;;;;;;;60.00;9.27;;;;;;;11.14;100.00;99620.31;5091706;28;20032;-65
2020/12/27 00:17:03;;;;;;;64.70;10.38;;;;;;;11.10;100.00;99608.25;5091498;28;20048;-64
2020/12/27 00:19:29;;;;;;;61.45;9.95;;;;;;;11.09;100.00;99622.22;5091657;28;20492;-64
2020/12/27 00:21:55;;;;;;;67.00;9.90;;;;;;;11.04;100.00;99598.44;5091572;28;20035;-65
2020/12/27 00:24:20;;;;;;;78.32;12.07;;;;;;;11.02;100.00;99562.41;5091525;28;20135;-64
2020/12/27 00:26:46;;;;;;;73.35;12.57;;;;;;;10.98;100.00;99577.72;5091405;28;20154;-65
2020/12/27 00:29:11;;;;;;;69.50;11.27;;;;;;;10.94;100.00;99584.81;5091371;28;20036;-65
2020/12/27 00:31:37;;;;;;;69.30;10.95;;;;;;;10.90;100.00;99540.00;5091432;28;20036;-64
2020/12/27 00:34:02;;;;;;;78.85;13.05;;;;;;;10.85;100.00;99557.22;5091373;28;20028;-63
2020/12/27 00:36:28;;;;;;;74.28;11.75;;;;;;;10.82;100.00;99562.44;5091379;28;20549;-64
2020/12/27 00:38:53;;;;;;;74.53;11.10;;;;;;;10.78;100.00;99564.09;5090001;28;20501;-64
2020/12/27 00:41:23;;;;;;;74.30;12.05;;;;;;;10.76;100.00;99547.97;5091269;28;20387;-65
2020/12/27 00:43:49;;;;;;;74.05;12.50;;;;;;;10.74;100.00;99527.47;5091208;28;20044;-64
2020/12/27 00:46:15;;;;;;;99.38;13.25;;;;;;;10.71;100.00;99512.47;5091152;28;20112;-64
2020/12/27 00:48:41;;;;;;;84.03;12.10;;;;;;;10.71;100.00;99511.63;5091104;28;20062;-64
2020/12/27 00:51:07;;;;;;;80.80;14.60;;;;;;;10.69;100.00;99517.38;5091223;28;20036;-64
2020/12/27 00:53:33;;;;;;;86.55;13.38;;;;;;;10.68;100.00;99452.13;5091145;28;20042;-65
2020/12/27 00:55:59;;;;;;;64.82;12.13;;;;;;;10.67;100.00;99477.78;5091037;28;20036;-64
2020/12/27 00:58:24;;;;;;;90.38;15.20;;;;;;;10.67;100.00;99477.78;5090993;28;20036;-64
2020/12/27 01:00:50;;;;;;;88.43;12.07;;;;;;;10.66;100.00;99448.84;5091038;28;20134;-65
2020/12/27 01:03:15;;;;;;;82.25;13.88;;;;;;;10.66;100.00;99459.78;5090912;28;20033;-64
2020/12/27 01:05:41;;;;;;;71.38;11.68;;;;;;;10.64;100.00;99434.66;5090955;28;20028;-65
2020/12/27 01:08:07;;;;;;;86.57;13.68;;;;;;;10.65;100.00;99365.31;5090982;28;20433;-64
2020/12/27 01:10:32;;;;;;;64.85;11.30;;;;;;;10.63;100.00;99433.03;5091017;28;20040;-64
2020/12/27 01:12:58;;;;;;;71.40;11.48;;;;;;;10.63;100.00;99395.63;5090800;28;20043;-65
2020/12/27 01:15:24;;;;;;;67.93;9.73;;;;;;;10.63;100.00;99362.88;5090821;28;20040;-64
2020/12/27 01:17:49;;;;;;;71.40;11.23;;;;;;;10.64;100.00;99355.50;5090579;28;20052;-64
2020/12/27 01:20:15;;;;;;;66.05;11.68;;;;;;;10.64;100.00;99356.31;5090824;28;20406;-65
2020/12/27 01:22:40;;;;;;;69.07;11.45;;;;;;;10.65;100.00;99348.94;5090865;28;20040;-65
2020/12/27 01:25:09;;;;;;;87.38;13.82;;;;;;;10.61;100.00;99336.94;5094860;28;20559;-64
2020/12/27 01:27:36;;;;;;;84.70;11.57;;;;;;;10.55;100.00;99372.44;5094899;28;20039;-65
2020/12/27 01:30:04;;;;;;;83.63;12.05;;;;;;;10.52;100.00;99299.28;5094817;28;20044;-65
2020/12/27 01:32:30;;;;;;;79.80;12.38;;;;;;;10.51;100.00;99371.34;5094689;28;20082;-64
2020/12/27 01:34:56;;;;;;;77.40;12.70;;;;;;;10.54;100.00;99293.53;5094682;28;20051;-64
2020/12/27 01:37:22;;;;;;;77.50;14.02;;;;;;;10.57;100.00;99257.50;5094907;28;20044;-65
2020/12/27 01:39:48;;;;;;;72.00;10.30;;;;;;;10.54;100.00;99278.00;5094718;28;20085;-64
2020/12/27 01:42:14;;;;;;;77.95;11.00;;;;;;;10.52;100.00;99280.19;5094662;28;20075;-64
2020/12/27 01:44:39;;;;;;;72.40;12.25;;;;;;;10.49;100.00;99296.31;5094517;28;20147;-64
2020/12/27 01:47:35;;;;;;;58.05;9.07;;;;;;;10.47;100.00;99252.91;5094866;28;20040;-64
2020/12/27 01:50:02;;;;;;;64.00;9.95;;;;;;;10.46;100.00;99225.91;5051543;28;20609;-65
2020/12/27 01:52:28;;;;;;;71.38;11.38;;;;;;;10.47;100.00;99211.97;5051604;28;20055;-64
2020/12/27 01:54:54;;;;;;;70.22;11.32;;;;;;;10.47;100.00;99189.31;5086357;28;20122;-64
2020/12/27 01:57:21;;;;;;;81.07;11.32;;;;;;;10.47;100.00;99189.31;5094444;28;20043;-65
2020/12/27 01:59:47;;;;;;;69.38;11.10;;;;;;;10.47;100.00;99102.00;5094273;28;20131;-64
2020/12/27 02:02:14;;;;;;;74.97;11.55;;;;;;;10.43;100.00;99169.97;5094224;28;20130;-64
2020/12/27 02:04:40;;;;;;;83.22;11.38;;;;;;;10.44;100.00;99133.41;5094007;28;20039;-65
2020/12/27 02:07:08;;;;;;;84.53;13.20;;;;;;;10.47;100.00;99119.19;5094099;28;20048;-64
2020/12/27 02:09:36;;;;;;;73.18;10.18;;;;;;;10.46;100.00;99068.44;5094095;28;20461;-64
2020/12/27 02:12:07;;;;;;;71.82;11.32;;;;;;;10.45;100.00;99061.34;5094061;28;20036;-63
2020/12/27 02:14:34;;;;;;;81.10;11.55;;;;;;;10.44;100.00;99058.91;5093974;28;20442;-64
2020/12/27 02:17:02;;;;;;;60.85;11.00;;;;;;;10.44;100.00;99065.16;5093750;28;20155;-64
2020/12/27 02:19:27;;;;;;;85.80;13.82;;;;;;;10.43;100.00;99032.72;5093882;28;20035;-63
2020/12/27 02:21:53;;;;;;;83.80;11.13;;;;;;;10.44;100.00;99048.78;5094150;28;20363;-64
2020/12/27 02:24:18;;;;;;;96.53;12.60;;;;;;;10.47;100.00;99031.84;5093623;28;20043;-64
2020/12/27 02:27:05;;;;;;;90.47;13.55;;;;;;;10.49;100.00;99007.00;5092430;28;20048;-65
2020/12/27 02:29:33;;;;;;;83.57;11.98;;;;;;;10.51;100.00;99027.44;5093821;28;20027;-63
2020/12/27 02:31:59;;;;;;;94.28;12.13;;;;;;;10.54;100.00;98982.38;5093759;28;20075;-64
2020/12/27 02:34:25;;;;;;;83.40;13.18;;;;;;;10.52;100.00;98993.59;5093123;28;20091;-64
2020/12/27 02:51:58;;;;;;;;;;;;;;;10.46;100.00;98948.34;5093827;28;20091;-64
2020/12/27 02:54:24;;;;;;;94.75;12.82;;;;;;;10.43;100.00;98916.19;5093247;28;19919;-64
2020/12/27 02:56:50;;;;;;;67.05;9.40;;;;;;;10.41;100.00;98929.31;5093114;28;20143;-64
2020/12/27 02:59:15;;;;;;;77.25;11.68;;;;;;;10.41;100.00;98903.91;5093067;28;20083;-63
2020/12/27 03:01:41;;;;;;;66.45;10.40;;;;;;;10.42;100.00;98895.44;5093271;28;20079;-64
2020/12/27 03:04:07;;;;;;;72.95;10.70;;;;;;;10.45;100.00;98886.69;5093178;28;20402;-63
2020/12/27 03:06:32;;;;;;;60.00;9.52;;;;;;;10.44;100.00;98876.88;5093024;28;20398;-64
2020/12/27 03:08:58;;;;;;;41.70;7.25;;;;;;;10.43;100.00;98858.88;5092732;28;20436;-64
2020/12/27 03:11:26;;;;;;;51.42;8.52;;;;;;;10.41;100.00;98852.03;5092875;28;20058;-63
2020/12/27 03:13:53;;;;;;;49.33;6.95;;;;;;;10.40;100.00;98894.91;5092989;28;20024;-64
2020/12/27 03:16:19;;;;;;;29.45;5.72;;;;;;;10.41;100.00;98831.06;5093171;28;20477;-63
2020/12/27 03:18:45;;;;;;;39.72;6.18;;;;;;;10.39;100.00;98816.88;5092500;28;20375;-64
2020/12/27 03:21:10;;;;;;;34.92;4.78;;;;;;;10.38;100.00;98796.16;5092831;28;20043;-64
2020/12/27 03:23:36;;;;;;;37.40;6.25;;;;;;;10.38;100.00;98774.31;5092511;28;20121;-63
2020/12/27 03:26:02;;;;;;;37.97;5.70;;;;;;;10.36;100.00;98773.78;5091284;28;20078;-64
2020/12/27 03:28:27;;;;;;;63.28;7.03;;;;;;;10.37;100.00;98745.41;5092421;28;20040;-64
2020/12/27 03:30:53;;;;;;;38.35;5.53;;;;;;;10.37;100.00;98747.31;5092525;28;20039;-64
2020/12/27 03:33:19;;;;;;;47.60;7.25;;;;;;;10.37;100.00;98726.31;5092553;28;20039;-63
2020/12/27 03:35:44;;;;;;;37.55;4.65;;;;;;;10.32;100.00;98685.44;5092651;28;20405;-64
2020/12/27 03:38:10;;;;;;;40.05;5.57;;;;;;;10.29;100.00;98699.69;5092326;28;20445;-64
2020/12/27 03:40:36;;;;;;;41.22;5.88;;;;;;;10.27;100.00;98693.72;5092328;28;20439;-65
2020/12/27 03:43:01;;;;;;;35.72;5.38;;;;;;;10.25;100.00;98671.38;5092089;28;20505;-64
2020/12/27 03:45:27;;;;;;;46.63;4.97;;;;;;;10.27;100.00;98650.06;5091851;28;20039;-65
2020/12/27 03:47:54;;;;;;;34.97;5.68;;;;;;;10.31;100.00;98629.25;5091799;28;20726;-64
2020/12/27 03:50:22;;;;;;;30.40;4.88;;;;;;;10.31;100.00;98599.25;5092243;28;20043;-64
2020/12/27 03:52:48;;;;;;;25.45;3.40;;;;;;;10.33;100.00;98607.94;5092151;28;20060;-63
2020/12/27 03:55:13;;;;;;;32.88;4.80;;;;;;;10.35;100.00;98583.91;5092136;28;20064;-65
2020/12/27 03:57:39;;;;;;;24.48;4.15;;;;;;;10.39;100.00;98587.66;5091892;28;20043;-63
2020/12/27 04:00:04;;;;;;;38.60;5.25;;;;;;;10.43;100.00;98587.91;5092232;28;20047;-64
2020/12/27 04:02:30;;;;;;;53.47;7.50;;;;;;;10.46;100.00;98582.66;5091868;28;20048;-64
2020/12/27 04:04:56;;;;;;;17.85;3.25;;;;;;;10.06;100.00;98615.94;5091842;28;20486;-64
2020/12/27 04:07:22;;;;;;;10.73;2.03;;;;;;;9.46;100.00;98583.69;5091887;28;20040;-64
2020/12/27 04:09:48;;;;;;;9.25;1.05;;;;;;;9.20;100.00;98598.69;5091942;28;20040;-64
2020/12/27 04:12:13;;;;;;;9.15;1.17;;;;;;;8.95;100.00;98591.59;5091818;28;20043;-64
2020/12/27 04:14:40;;;;;;;7.50;0.90;;;;;;;8.76;100.00;98605.09;5091840;28;20044;-63
2020/12/27 04:17:06;;;;;;;8.65;1.35;;;;;;;8.62;100.00;98599.47;5091407;28;20044;-63
2020/12/27 04:19:31;;;;;;;9.50;2.25;;;;;;;8.50;100.00;98585.44;5091535;28;20402;-64
2020/12/27 04:21:57;;;;;;;8.10;0.90;;;;;;;8.43;100.00;98583.03;5091610;28;20032;-63
2020/12/27 04:24:23;;;;;;;6.07;1.33;;;;;;;8.38;100.00;98577.66;5091762;28;20036;-64
2020/12/27 04:26:49;;;;;;;13.93;1.33;;;;;;;8.35;100.00;98564.63;5091545;28;20065;-63
2020/12/27 04:29:15;;;;;;;12.02;1.80;;;;;;;8.32;100.00;98545.28;5091402;28;20126;-64
2020/12/27 04:31:40;;;;;;;5.85;0.82;;;;;;;8.30;100.00;98528.44;5091424;28;20173;-64
2020/12/27 04:34:06;;;;;;;8.05;0.90;;;;;;;8.29;100.00;98529.53;5091414;28;20062;-65
2020/12/27 04:36:31;;;;;;;18.67;2.25;;;;;;;8.31;100.00;98516.47;5091289;28;20486;-63
2020/12/27 04:38:58;;;;;;;12.50;2.47;;;;;;;8.32;100.00;98496.34;5091315;28;20067;-64
2020/12/27 04:41:24;;;;;;;12.18;1.75;;;;;;;8.34;100.00;98494.19;5091545;28;20452;-63
2020/12/27 04:43:50;;;;;;;14.10;2.08;;;;;;;8.37;100.00;98509.94;5091181;28;20039;-64
2020/12/27 04:46:17;;;;;;;14.98;2.85;;;;;;;8.39;100.00;98496.88;5091261;28;20039;-65
2020/12/27 04:48:44;;;;;;;26.40;3.95;;;;;;;8.42;100.00;98496.28;5091087;28;20511;-64
2020/12/27 04:51:12;;;;;;;21.33;3.15;;;;;;;8.44;100.00;98481.31;5091030;28;20040;-63
2020/12/27 04:53:40;;;;;;;22.58;2.97;;;;;;;8.45;100.00;98480.19;5091089;28;20036;-63
2020/12/27 04:56:07;;;;;;;18.25;3.33;;;;;;;8.49;100.00;98468.75;5091199;28;20093;-64
2020/12/27 04:58:33;;;;;;;18.95;2.55;;;;;;;8.51;100.00;98477.47;5089501;28;20112;-63
2020/12/27 05:01:00;;;;;;;18.58;3.03;;;;;;;8.55;100.00;98473.88;5091164;28;20052;-64
2020/12/27 05:03:26;;;;;;;26.00;3.55;;;;;;;8.57;100.00;98474.38;5089548;28;20071;-64
2020/12/27 05:05:53;;;;;;;16.63;2.67;;;;;;;8.60;100.00;98473.00;5090968;28;20116;-64
2020/12/27 05:08:19;;;;;;;21.10;3.72;;;;;;;8.64;100.00;98449.56;5090768;28;20036;-63
2020/12/27 05:10:46;;;;;;;27.70;4.18;;;;;;;8.66;100.00;98448.16;5090949;28;20482;-64
2020/12/27 05:13:12;;;;;;;20.17;2.72;;;;;;;8.68;100.00;98437.84;5091012;28;20028;-64
2020/12/27 05:15:39;;;;;;;29.08;5.20;;;;;;;8.69;100.00;98425.84;5091082;28;20040;-63
2020/12/27 05:18:05;;;;;;;26.65;3.28;;;;;;;8.70;100.00;98430.19;5090541;28;20148;-65
2020/12/27 05:20:32;;;;;;;39.80;4.57;;;;;;;8.72;100.00;98414.38;5090820;28;20078;-63
2020/12/27 05:23:02;;;;;;;23.65;4.22;;;;;;;8.73;100.00;98431.50;5090717;28;20496;-64
2020/12/27 05:25:34;;;;;;;29.20;4.78;;;;;;;8.74;100.00;98423.06;5090769;28;20043;-64
2020/12/27 05:28:08;;;;;;;34.40;6.95;;;;;;;8.77;100.00;98411.59;5090854;28;20047;-64
2020/12/27 05:30:34;;;;;;;33.15;5.55;;;;;;;8.80;100.00;98420.28;5090929;28;20098;-63
2020/12/27 05:33:00;;;;;;;20.95;2.95;;;;;;;8.81;100.00;98405.56;5090768;28;20557;-64
2020/12/27 05:35:26;;;;;;;27.25;3.75;;;;;;;8.83;100.00;98404.16;5090749;28;20114;-65
2020/12/27 05:37:52;;;;;;;29.50;4.22;;;;;;;8.83;100.00;98393.28;5090576;28;20501;-64
2020/12/27 05:40:19;;;;;;;31.77;5.13;;;;;;;8.85;100.00;98382.94;5090640;28;20051;-64
2020/12/27 05:42:46;;;;;;;33.08;4.45;;;;;;;8.86;100.00;98359.25;5090657;28;20149;-64
2020/12/27 05:45:17;;;;;;;33.53;6.10;;;;;;;8.88;100.00;98367.94;5090609;28;20412;-65
2020/12/27 05:47:44;;;;;;;29.67;4.00;;;;;;;8.88;100.00;98346.97;5090973;28;20039;-65
2020/12/27 05:50:17;;;;;;;27.58;6.20;;;;;;;8.87;100.00;98344.53;5090655;28;20044;-64
2020/12/27 05:52:47;;;;;;;39.17;5.95;;;;;;;8.86;100.00;98353.81;5090725;28;20123;-64
2020/12/27 05:55:19;;;;;;;34.47;5.53;;;;;;;8.85;100.00;98346.72;5090548;28;20044;-64
2020/12/27 05:57:52;;;;;;;29.10;4.20;;;;;;;8.88;100.00;98340.72;5090425;28;20583;-65
2020/12/27 06:00:24;;;;;;;40.75;4.75;;;;;;;8.94;100.00;98355.88;5090635;28;20028;-65
2020/12/27 06:03:01;;;;;;;31.50;4.68;;;;;;;8.96;100.00;98342.78;5090626;28;20047;-63
2020/12/27 06:06:01;;;;;;;31.92;5.47;;;;;;;9.00;100.00;98354.69;5090542;28;20050;-64
2020/12/27 06:08:29;;;;;;;34.60;4.80;;;;;;;8.99;100.00;98347.63;5090291;28;20051;-64
2020/12/27 06:11:00;;;;;;;24.55;4.15;;;;;;;8.96;100.00;98354.47;5093775;28;20465;-64
2020/12/27 06:13:25;;;;;;;29.52;4.45;;;;;;;8.99;100.00;98325.84;5094081;28;20024;-65
2020/12/27 06:15:56;;;;;;;32.28;4.65;;;;;;;9.00;100.00;98332.91;5094019;28;20036;-64
2020/12/27 06:18:26;;;;;;;32.40;5.35;;;;;;;8.99;100.00;98314.97;5093811;28;20048;-65
2020/12/27 06:21:05;;;;;;;26.88;2.40;;;;;;;8.96;100.00;98282.88;5094047;28;20036;-64
2020/12/27 06:23:32;;;;;;;23.63;3.65;;;;;;;8.97;100.00;98300.84;5093839;28;20533;-63
2020/12/27 06:26:04;;;;;;;21.15;3.22;;;;;;;8.94;100.00;98298.72;5093818;28;20491;-64
2020/12/27 06:28:31;;;;;;;18.98;2.70;;;;;;;8.94;100.00;98280.47;5094047;28;20126;-65
2020/12/27 06:31:23;;;;;;;18.08;3.20;;;;;;;8.92;100.00;98292.75;5093801;28;20036;-64
2020/12/27 06:33:50;;;;;;;22.30;3.00;;;;;;;8.91;100.00;98285.69;5091987;28;20040;-64
2020/12/27 06:36:32;;;;;;;19.60;2.40;;;;;;;8.89;100.00;98296.06;5093792;28;20036;-64
2020/12/27 06:38:58;;;;;;;20.65;2.83;;;;;;;8.86;100.00;98288.50;5093523;28;20474;-63
2020/12/27 06:41:23;;;;;;;20.63;3.05;;;;;;;8.84;100.00;98298.84;5093994;28;20085;-64
2020/12/27 06:43:49;;;;;;;18.85;1.95;;;;;;;8.81;100.00;98296.69;5093324;28;20134;-64
2020/12/27 06:46:27;;;;;;;15.23;2.97;;;;;;;8.79;100.00;98297.00;5093724;28;20410;-63
2020/12/27 06:49:13;;;;;;;18.42;2.47;;;;;;;8.74;100.00;98286.19;5093314;28;20036;-64
2020/12/27 06:51:43;;;;;;;18.95;2.95;;;;;;;8.73;100.00;98290.03;5093497;28;20040;-63
2020/12/27 06:54:10;;;;;;;15.20;3.13;;;;;;;8.71;100.00;98284.88;5093288;28;20042;-65
2020/12/27 06:56:38;;;;;;;21.15;2.78;;;;;;;8.68;100.00;98277.31;5093232;28;20028;-65
2020/12/27 06:59:05;;;;;;;15.98;2.58;;;;;;;8.65;100.00;98272.41;5093018;28;20046;-65
2020/12/27 07:01:31;;;;;;;16.08;2.75;;;;;;;8.61;100.00;98276.84;5093127;28;20119;-64
2020/12/27 07:04:17;;;;;;;16.23;2.22;;;;;;;8.59;100.00;98273.59;5092974;28;20132;-64
2020/12/27 07:06:52;;;;;;;22.73;2.60;;;;;;;8.56;100.00;98266.03;5093105;28;20024;-66
2020/12/27 07:09:22;;;;;;;17.63;2.08;;;;;;;8.56;100.00;98263.31;5093129;28;20055;-66
2020/12/27 07:12:03;;;;;;;19.08;2.65;;;;;;;8.55;100.00;98261.69;5093068;28;20050;-64
2020/12/27 07:14:28;;;;;;;17.27;2.78;;;;;;;8.55;100.00;98261.69;5092932;28;20059;-65
2020/12/27 07:16:57;;;;;;;13.60;2.30;;;;;;;8.53;100.00;98255.72;5092514;28;20112;-65
2020/12/27 07:19:25;;;;;;;16.42;2.78;;;;;;;8.51;100.00;98241.63;5092803;28;20143;-64
2020/12/27 07:21:54;;;;;;;23.85;3.13;;;;;;;8.48;100.00;98223.13;5092732;28;20142;-64
2020/12/27 07:24:22;;;;;;;20.92;2.63;;;;;;;8.48;100.00;98216.88;5092799;28;20188;-64
2020/12/27 07:26:49;;;;;;;16.25;2.90;;;;;;;8.45;100.00;98237.31;5092748;28;20039;-64
2020/12/27 07:29:17;;;;;;;27.38;4.65;;;;;;;8.44;100.00;98227.56;5092503;28;20046;-64
2020/12/27 07:31:43;;;;;;;24.48;3.70;;;;;;;8.41;100.00;98228.13;5092492;28;20040;-64
2020/12/27 07:34:12;;;;;;;24.58;4.32;;;;;;;8.39;100.00;98230.34;5092475;28;20024;-64
2020/12/27 07:36:38;;;;;;;24.60;3.53;;;;;;;8.37;100.00;98211.59;5092477;28;20119;-64
2020/12/27 07:39:06;;;;;;;33.42;3.55;;;;;;;8.37;100.00;98221.66;5092362;28;20181;-64
2020/12/27 07:41:34;;;;;;;26.58;3.08;;;;;;;8.35;100.00;98227.41;5091296;28;20035;-66
2020/12/27 07:44:00;;;;;;;22.05;3.33;;;;;;;8.35;100.00;98219.25;5092300;28;20067;-64
2020/12/27 07:46:27;;;;;;;37.75;4.55;;;;;;;8.34;100.00;98219.53;5092290;28;20046;-66
2020/12/27 07:48:55;;;;;;;31.58;5.15;;;;;;;8.32;100.00;98219.78;5092058;28;20040;-64
2020/12/27 07:51:23;;;;;;;29.70;4.05;;;;;;;8.32;100.00;98213.53;5092144;28;20040;-63
2020/12/27 07:53:52;;;;;;;21.75;4.65;;;;;;;8.31;100.00;98211.91;5092097;28;20024;-64
2020/12/27 07:56:25;;;;;;;25.33;3.17;;;;;;;8.30;100.00;98229.31;5092710;28;20036;-66
2020/12/27 07:58:51;;;;;;;26.20;4.20;;;;;;;8.31;100.00;98223.59;5092010;28;20039;-64
2020/12/27 08:01:25;;;;;;;18.70;2.75;;;;;;;8.31;100.00;98245.34;5092064;28;20028;-65
2020/12/27 08:03:56;;;;;;;18.20;3.60;;;;;;;8.32;100.00;98244.25;5091944;28;20063;-65
2020/12/27 08:06:27;;;;;;;14.23;3.13;;;;;;;8.30;100.00;98248.38;5091973;28;20355;-65
2020/12/27 08:09:17;;;;;;;24.17;2.97;;;;;;;8.28;100.00;98258.72;5090382;28;20115;-66
2020/12/27 08:11:44;;;;;;;9.45;1.60;;;;;;;8.17;100.00;98228.16;5091889;28;20078;-64
2020/12/27 08:14:11;;;;;;;15.52;2.67;;;;;;;7.82;100.00;98286.41;5091905;28;20035;-64
2020/12/27 08:16:38;;;;;;;11.82;1.40;;;;;;;7.45;100.00;98282.38;5091832;28;20501;-64
2020/12/27 08:19:06;;;;;;;10.98;1.63;;;;;;;7.21;100.00;98278.78;5091366;28;20048;-63
2020/12/27 08:21:37;;;;;;;8.10;1.90;;;;;;;7.08;100.00;98276.69;5091593;28;20397;-65
2020/12/27 08:24:06;;;;;;;9.27;1.55;;;;;;;6.91;100.00;98256.19;5091552;28;20040;-65
2020/12/27 08:26:34;;;;;;;8.70;1.63;;;;;;;6.82;100.00;98249.75;5091606;28;20081;-64
2020/12/27 08:29:23;;;;;;;8.07;1.48;;;;;;;6.80;100.00;98259.28;5091502;28;20499;-64
2020/12/27 08:31:50;;;;;;;9.00;0.90;;;;;;;6.72;100.00;98279.63;5091270;28;20057;-65
2020/12/27 08:34:24;;;;;;;8.52;1.40;;;;;;;6.68;100.00;98286.72;5091381;28;20036;-65
2020/12/27 08:36:52;;;;;;;10.88;1.20;;;;;;;6.63;100.00;98287.56;5091339;28;20123;-63
2020/12/27 08:39:40;;;;;;;6.70;1.40;;;;;;;6.60;100.00;98281.91;5091340;28;20071;-65
2020/12/27 08:42:27;;;;;;;6.55;0.90;;;;;;;6.59;100.00;98280.25;5091243;28;20081;-64
2020/12/27 08:45:22;;;;;;;4.95;1.27;;;;;;;6.53;100.00;98284.88;5091301;28;20024;-66
2020/12/27 08:48:05;;;;;;;6.78;1.13;;;;;;;6.54;100.00;98272.16;5048578;28;20084;-64
2020/12/27 08:50:41;;;;;;;14.48;2.38;;;;;;;6.55;100.00;98268.34;5048655;28;20175;-64
2020/12/27 08:53:09;;;;;;;8.65;1.20;;;;;;;6.56;100.00;98256.41;5090649;28;20059;-65
2020/12/27 08:55:37;;;;;;;6.00;0.80;;;;;;;6.55;100.00;98262.91;5091304;28;20043;-63
2020/12/27 08:58:02;;;;;;;6.25;1.00;;;;;;;6.53;100.00;98265.09;5090967;28;20032;-65
2020/12/27 09:00:33;;;;;;;5.43;1.27;;;;;;;6.55;100.00;98271.06;5091257;28;20040;-64
2020/12/27 09:03:01;;;;;;;10.23;1.13;;;;;;;6.56;100.00;98267.25;5091257;28;20040;-64
2020/12/27 09:05:28;;;;;;;7.07;1.25;;;;;;;6.55;100.00;98274.56;5091020;28;20040;-65
2020/12/27 09:07:54;;;;;;;7.35;1.25;;;;;;;6.54;100.00;98272.16;5090861;28;20040;-64
2020/12/27 09:10:22;;;;;;;9.55;0.98;;;;;;;6.50;100.00;98271.91;5090983;28;20042;-65
2020/12/27 09:12:59;;;;;;;10.32;1.23;;;;;;;6.47;100.00;98266.22;5090907;28;20572;-64
2020/12/27 09:15:44;;;;;;;5.75;1.10;;;;;;;6.44;100.00;98269.50;5090976;28;20028;-65
2020/12/27 09:18:15;;;;;;;10.30;1.30;;;;;;;6.42;100.00;98268.94;5090725;28;20490;-64
2020/12/27 09:20:42;;;;;;;5.40;1.27;;;;;;;6.43;100.00;98270.59;5091068;28;20031;-64
2020/12/27 09:23:12;;;;;;;13.80;1.80;;;;;;;6.43;100.00;98270.59;5090713;28;20032;-65
2020/12/27 09:25:39;;;;;;;12.90;1.55;;;;;;;6.43;100.00;98260.56;5090794;28;20478;-65
2020/12/27 09:28:12;;;;;;;8.25;0.98;;;;;;;6.44;100.00;98264.06;5090673;28;20031;-64
2020/12/27 09:30:41;;;;;;;10.75;2.17;;;;;;;6.51;100.00;98256.44;5090746;28;20058;-64
2020/12/27 09:33:07;;;;;;;12.00;1.38;;;;;;;6.57;100.00;98250.69;5090565;28;20123;-64
2020/12/27 09:35:33;;;;;;;14.63;2.05;;;;;;;6.64;100.00;98255.84;5090850;28;20039;-65
2020/12/27 09:37:59;;;;;;;11.95;1.55;;;;;;;6.72;100.00;98259.84;5090815;28;20397;-66
2020/12/27 09:40:26;;;;;;;15.32;1.77;;;;;;;6.83;100.00;98258.69;5090655;28;20036;-65
2020/12/27 09:43:04;;;;;;;11.77;1.98;;;;;;;6.90;100.00;98262.72;5090631;28;20036;-65
2020/12/27 09:45:32;;;;;;;13.45;1.55;;;;;;;6.97;100.00;98258.88;5093552;28;20047;-66
2020/12/27 09:48:02;;;;;;;10.02;1.33;;;;;;;6.97;100.00;98253.47;5094384;28;20115;-64
2020/12/27 09:50:37;;;;;;;18.15;1.90;;;;;;;6.97;100.00;98254.28;5094388;28;20044;-64
2020/12/27 09:53:04;;;;;;;9.25;1.10;;;;;;;6.95;100.00;98256.47;5094586;28;20047;-64
2020/12/27 09:55:31;;;;;;;8.50;1.52;;;;;;;6.88;100.00;98251.34;5094426;28;20558;-64
2020/12/27 09:57:57;;;;;;;5.90;1.15;;;;;;;6.88;100.00;98254.03;5094304;28;20496;-64
2020/12/27 10:00:24;;;;;;;9.77;1.13;;;;;;;6.91;100.00;98261.63;5094514;28;20044;-64
2020/12/27 10:02:50;;;;;;;8.65;2.20;;;;;;;6.91;100.00;98258.91;5094214;28;20032;-65
2020/12/27 10:05:15;;;;;;;15.57;1.77;;;;;;;6.84;100.00;98250.28;5094128;28;20043;-63
2020/12/27 10:07:42;;;;;;;9.40;1.05;;;;;;;6.77;100.00;98238.09;5094286;28;20036;-64
2020/12/27 10:10:10;;;;;;;10.45;1.35;;;;;;;6.72;100.00;98249.81;5094190;28;20027;-65
2020/12/27 10:12:36;;;;;;;5.07;1.02;;;;;;;6.68;100.00;98239.81;5094319;28;20466;-65
2020/12/27 10:15:04;;;;;;;7.90;1.25;;;;;;;6.69;100.00;98236.81;5092654;28;20089;-65
2020/12/27 10:17:29;;;;;;;6.32;0.70;;;;;;;6.72;100.00;98225.41;5093766;28;20068;-65
2020/12/27 10:19:58;;;;;;;7.60;1.23;;;;;;;6.78;100.00;98229.72;5094189;28;20503;-64
2020/12/27 10:22:24;;;;;;;9.82;1.48;;;;;;;6.82;100.00;98219.91;5093909;28;20039;-64
2020/12/27 10:24:51;;;;;;;11.52;1.92;;;;;;;6.91;100.00;98222.81;5093877;28;20517;-64
2020/12/27 10:27:16;;;;;;;4.75;1.23;;;;;;;6.92;100.00;98208.97;5093862;28;20050;-65
2020/12/27 10:29:42;;;;;;;9.05;1.65;;;;;;;6.98;100.00;98208.97;5093771;28;20539;-65
2020/12/27 10:32:08;;;;;;;4.85;1.02;;;;;;;7.08;100.00;98219.72;5093758;28;20493;-64
2020/12/27 10:34:35;;;;;;;12.50;1.50;;;;;;;7.14;100.00;98210.47;5093668;28;20028;-64
2020/12/27 10:37:01;;;;;;;8.98;1.10;;;;;;;7.18;100.00;98200.66;5093579;28;20050;-66
2020/12/27 10:39:28;;;;;;;7.18;1.65;;;;;;;7.21;100.00;98200.06;5093645;28;20046;-65
2020/12/27 10:41:54;;;;;;;11.00;1.48;;;;;;;7.25;100.00;98203.81;5093672;28;20043;-66
2020/12/27 10:44:21;;;;;;;17.02;2.42;;;;;;;7.32;100.00;98201.59;5093500;28;20086;-64
2020/12/27 10:46:50;;;;;;;14.40;1.65;;;;;;;7.37;100.00;98204.28;5093342;28;20093;-65
2020/12/27 10:49:20;;;;;;;10.20;1.67;;;;;;;7.47;100.00;98204.19;5093269;28;20055;-64
2020/12/27 10:51:45;;;;;;;9.77;1.73;;;;;;;7.56;100.00;98196.22;5093262;28;20067;-64
2020/12/27 10:54:11;;;;;;;17.20;1.92;;;;;;;7.65;100.00;98190.97;5093286;28;20071;-64
2020/12/27 10:56:47;;;;;;;12.88;2.30;;;;;;;7.69;100.00;98183.88;5093085;28;20509;-65
2020/12/27 10:59:14;;;;;;;13.23;2.67;;;;;;;7.78;100.00;98171.25;5093274;28;20078;-64
2020/12/27 11:01:48;;;;;;;13.25;1.80;;;;;;;7.85;100.00;98175.25;5093202;28;20108;-64
2020/12/27 11:04:13;;;;;;;11.93;1.87;;;;;;;7.96;100.00;98162.34;5092981;28;20823;-65
2020/12/27 11:06:40;;;;;;;13.45;2.47;;;;;;;8.06;100.00;98151.34;5092962;28;20064;-64
2020/12/27 11:09:06;;;;;;;11.38;1.67;;;;;;;8.16;100.00;98151.22;5092849;28;20051;-64
2020/12/27 11:11:36;;;;;;;11.48;2.00;;;;;;;8.22;100.00;98137.56;5093101;28;20366;-63
2020/12/27 11:14:03;;;;;;;18.85;3.03;;;;;;;8.29;100.00;98132.53;5092904;28;20186;-65
2020/12/27 11:16:31;;;;;;;12.32;2.08;;;;;;;8.26;100.00;98133.13;5093037;28;20032;-65
2020/12/27 11:18:56;;;;;;;14.38;2.47;;;;;;;8.35;100.00;98132.22;5092416;28;20067;-64
2020/12/27 11:21:22;;;;;;;22.77;2.95;;;;;;;8.42;100.00;98126.41;5092761;28;20697;-64
2020/12/27 11:23:47;;;;;;;11.00;1.80;;;;;;;8.45;100.00;98114.94;5092767;28;20051;-64
2020/12/27 11:26:19;;;;;;;14.55;2.08;;;;;;;8.52;100.00;98109.16;5092590;28;20050;-64
2020/12/27 11:28:46;;;;;;;14.00;3.55;;;;;;;8.59;100.00;98109.56;5092568;28;20176;-66
2020/12/27 11:31:17;;;;;;;16.88;2.35;;;;;;;8.57;100.00;98112.59;5092676;28;20032;-65
2020/12/27 11:33:44;;;;;;;19.88;2.40;;;;;;;8.71;100.00;98107.22;5092604;28;20074;-64
2020/12/27 11:36:11;;;;;;;13.90;2.10;;;;;;;8.78;100.00;98102.19;5092364;28;20434;-65
2020/12/27 11:38:36;;;;;;;16.05;2.97;;;;;;;8.85;100.00;98101.78;5092377;28;20591;-66
2020/12/27 11:41:02;;;;;;;12.27;2.38;;;;;;;8.84;100.00;98100.97;5092319;28;20040;-65
2020/12/27 11:43:28;;;;;;;13.05;2.10;;;;;;;8.88;100.00;98084.88;5092151;28;20051;-65